Pagina principale
METAR-TAF:

METAR-TAF

Aeroporti :

East London, Sudafrica

latitudine: 33-02S, longitudine: 027-50E, altezza: 125 m

Osservazione

Il bollettino è stato emesso 9 ore e 0 minuti fa, alle 18:00 UTC
Vento 3 kt da sud/sud-ovest, variando fra sud e ovest/sud-ovest
Temperature 19°C
Umidità 68%
Pressione 1025 hPa
Visibilità 10 km o più
Poco nuvoloso ad un'altezza di 3600 ft

METAR: FAEL 231800Z 21003KT 180V240 9999 FEW036 19/13 Q1025

Ora: 05:00 (03:00 UTC)

Previsione

Il bollettino è stato emesso 12 ore e 0 minuti fa, alle 15:00 UTC
Previsione valida dal 23 alle 15 UTC al 23 alle 19 UTC
Vento 11 kt da sud
Visibilità 10 km o più
Nubi sparse ad un'altezza di 3800 ft
Evoluzione graduale
dal 23 alle 17 UTC al 23 alle 19 UTC
Nuvoloso ad un'altezza di 2000 ft

TAF: FAEL 231500Z 2315/2319 18011KT 9999 SCT038 TX20/2316Z TN19/2319Z BECMG 2317/2319 BKN020

Osservazioni e previsioni meteorologiche di più di 4000 aeroporti (messaggi METAR e TAF).

Le stazioni disponibili sono rappresentate dai dischi gialli e rossi sulla carta.

Puntare il mouse per vedere il nome della stazione.

Clicca sopra per visualizzare le osservazioni e previsioni meteorologiche.

Per cambiare la mappa : fare clic sui pulsanti verdi con una croce nera per ingrandire, il pulsante verde con un trattino per diminuire, o sulla freccia verde per le mappe adiacenti.


METAR-TAF: